createdAt,value
2022-12-25T00:00:55.449Z,5.03
2022-12-25T00:03:22.157Z,5.40
2022-12-25T00:05:48.893Z,4.97
2022-12-25T00:08:15.509Z,5.20
2022-12-25T00:10:45.177Z,4.10
2022-12-25T00:13:12.270Z,3.60
2022-12-25T00:15:42.623Z,3.67
2022-12-25T00:18:09.215Z,2.97
2022-12-25T00:20:35.994Z,3.15
2022-12-25T00:23:02.918Z,3.42
2022-12-25T00:25:29.339Z,3.53
2022-12-25T00:27:55.944Z,3.40
2022-12-25T00:30:22.508Z,2.58
2022-12-25T00:32:49.303Z,3.30
2022-12-25T00:35:15.860Z,2.38
2022-12-25T00:37:42.355Z,2.50
2022-12-25T00:40:09.555Z,2.22
2022-12-25T00:42:36.182Z,2.47
2022-12-25T00:45:02.710Z,3.60
2022-12-25T00:47:29.551Z,4.10
2022-12-25T00:49:56.144Z,4.10
2022-12-25T00:52:22.630Z,4.00
2022-12-25T00:54:49.038Z,4.22
2022-12-25T00:57:16.308Z,4.10
2022-12-25T00:59:42.914Z,3.65
2022-12-25T01:02:24.867Z,3.50
2022-12-25T01:04:54.447Z,3.50
2022-12-25T01:07:22.805Z,3.15
2022-12-25T01:10:07.811Z,3.10
2022-12-25T01:12:37.523Z,2.90
2022-12-25T01:15:06.468Z,3.17
2022-12-25T01:17:33.141Z,3.13
2022-12-25T01:19:59.771Z,2.53
2022-12-25T01:22:26.470Z,2.83
2022-12-25T01:24:52.894Z,2.63
2022-12-25T01:27:19.640Z,2.97
2022-12-25T01:29:46.639Z,3.55
2022-12-25T01:32:13.585Z,2.88
2022-12-25T01:34:40.060Z,2.95
2022-12-25T01:37:07.216Z,3.10
2022-12-25T01:39:34.026Z,2.70
2022-12-25T01:42:00.547Z,2.60
2022-12-25T01:44:36.166Z,2.72
2022-12-25T01:47:03.608Z,3.17
2022-12-25T01:49:33.385Z,2.88
2022-12-25T01:52:05.431Z,2.15
2022-12-25T01:54:40.749Z,3.75
2022-12-25T01:57:11.906Z,5.65
2022-12-25T01:59:39.499Z,5.40
2022-12-25T02:02:06.218Z,5.07
2022-12-25T02:04:40.625Z,5.32
2022-12-25T02:07:15.122Z,6.03
2022-12-25T02:09:42.634Z,8.68
2022-12-25T02:12:15.019Z,5.68
2022-12-25T02:14:41.692Z,6.47
2022-12-25T02:17:33.718Z,5.63
2022-12-25T02:20:15.364Z,5.70
2022-12-25T02:23:00.619Z,6.13
2022-12-25T02:25:48.395Z,3.92
2022-12-25T02:28:26.787Z,7.68
2022-12-25T02:30:59.989Z,6.97
2022-12-25T02:33:50.756Z,7.03
2022-12-25T02:36:24.946Z,5.88
2022-12-25T02:39:28.571Z,6.40
2022-12-25T02:41:58.280Z,6.43
2022-12-25T02:44:44.275Z,7.07
2022-12-25T02:47:29.602Z,7.13
2022-12-25T02:50:16.362Z,7.50
2022-12-25T02:53:03.346Z,5.95
2022-12-25T02:55:55.313Z,6.30
2022-12-25T02:58:42.742Z,6.00
2022-12-25T03:01:34.212Z,4.78
2022-12-25T03:04:23.561Z,3.92
2022-12-25T03:06:58.522Z,4.90
2022-12-25T03:12:44.133Z,5.20
2022-12-25T03:15:31.439Z,5.65
2022-12-25T03:18:03.150Z,4.65
2022-12-25T03:20:49.290Z,3.97
2022-12-25T03:23:38.506Z,4.20
2022-12-25T03:26:23.943Z,4.63
2022-12-25T03:28:50.369Z,4.75
2022-12-25T03:31:26.564Z,4.03
2022-12-25T03:34:39.668Z,7.50
2022-12-25T03:37:43.370Z,5.60
2022-12-25T03:40:40.662Z,5.63
2022-12-25T03:43:30.790Z,5.90
2022-12-25T03:46:21.705Z,4.80
2022-12-25T03:49:15.230Z,4.63
2022-12-25T03:52:02.280Z,5.70
2022-12-25T03:54:52.402Z,5.15
2022-12-25T03:57:38.021Z,5.57
2022-12-25T04:00:23.801Z,6.20
2022-12-25T04:03:09.226Z,4.20
2022-12-25T04:05:54.505Z,4.10
2022-12-25T04:08:39.369Z,3.97
2022-12-25T04:11:24.315Z,4.05
2022-12-25T04:14:09.169Z,4.20
2022-12-25T04:16:54.516Z,3.60
2022-12-25T04:19:39.413Z,3.20
2022-12-25T04:22:24.641Z,3.10
2022-12-25T04:25:09.432Z,3.40
2022-12-25T04:27:54.346Z,2.90
2022-12-25T04:30:39.365Z,2.85
2022-12-25T04:33:24.384Z,2.97
2022-12-25T04:36:11.618Z,2.90
2022-12-25T04:38:39.882Z,2.80
2022-12-25T04:41:09.943Z,2.42
2022-12-25T04:43:36.675Z,2.70
2022-12-25T04:46:04.694Z,2.42
2022-12-25T04:51:17.001Z,1.98
2022-12-25T04:53:44.327Z,2.25
2022-12-25T04:56:10.898Z,3.17
2022-12-25T04:58:37.625Z,2.50
2022-12-25T05:01:05.002Z,2.60
2022-12-25T05:03:32.768Z,2.75
2022-12-25T05:05:59.968Z,2.47
2022-12-25T05:08:28.117Z,2.63
2022-12-25T05:10:54.614Z,2.63
2022-12-25T05:13:21.151Z,4.35
2022-12-25T05:15:47.851Z,3.85
2022-12-25T05:18:14.506Z,3.10
2022-12-25T05:20:41.031Z,3.17
2022-12-25T05:23:10.841Z,2.58
2022-12-25T05:25:40.455Z,2.22
2022-12-25T05:28:07.549Z,3.40
2022-12-25T05:30:34.840Z,2.58
2022-12-25T05:33:01.673Z,2.30
2022-12-25T05:35:28.105Z,2.65
2022-12-25T05:37:54.505Z,2.80
2022-12-25T05:40:20.980Z,3.20
2022-12-25T05:42:47.393Z,3.60
2022-12-25T05:45:13.844Z,3.97
2022-12-25T05:47:40.296Z,4.40
2022-12-25T05:50:07.518Z,3.20
2022-12-25T05:52:34.438Z,2.72
2022-12-25T05:55:01.410Z,3.90
2022-12-25T05:57:31.901Z,2.97
2022-12-25T05:59:58.514Z,3.13
2022-12-25T06:02:25.505Z,4.03
2022-12-25T06:04:52.308Z,3.22
2022-12-25T06:07:18.846Z,3.13
2022-12-25T06:09:45.279Z,3.70
2022-12-25T06:12:11.954Z,3.88
2022-12-25T06:14:38.406Z,3.85
2022-12-25T06:17:04.991Z,7.95
2022-12-25T06:19:31.531Z,8.27
2022-12-25T06:21:58.058Z,6.75
2022-12-25T06:24:24.900Z,5.95
2022-12-25T06:26:51.430Z,7.57
2022-12-25T06:29:17.906Z,6.38
2022-12-25T06:31:44.529Z,7.32
2022-12-25T06:34:11.398Z,8.98
2022-12-25T06:36:38.330Z,7.00
2022-12-25T06:39:04.805Z,7.00
2022-12-25T06:41:31.716Z,7.40
2022-12-25T06:44:01.179Z,6.80
2022-12-25T06:46:29.487Z,7.95
2022-12-25T06:48:57.672Z,6.65
2022-12-25T06:51:27.493Z,7.80
2022-12-25T06:53:55.114Z,7.55
2022-12-25T06:56:26.913Z,7.65
2022-12-25T06:58:58.809Z,5.13
2022-12-25T07:01:31.928Z,4.82
2022-12-25T07:04:01.685Z,5.35
2022-12-25T07:06:29.029Z,6.15
2022-12-25T07:08:55.617Z,5.03
2022-12-25T07:11:22.173Z,4.70
2022-12-25T07:13:48.834Z,6.82
2022-12-25T07:16:15.683Z,6.20
2022-12-25T07:18:42.504Z,4.95
2022-12-25T07:21:14.412Z,7.28
2022-12-25T07:23:41.547Z,6.20
2022-12-25T07:26:09.251Z,6.28
2022-12-25T07:28:35.699Z,7.30
2022-12-25T07:31:16.674Z,6.00
2022-12-25T07:33:43.525Z,8.73
2022-12-25T07:36:12.870Z,7.15
2022-12-25T07:38:42.701Z,6.00
2022-12-25T07:41:13.294Z,5.03
2022-12-25T07:43:40.090Z,4.90
2022-12-25T07:46:06.796Z,3.65
2022-12-25T07:48:33.393Z,4.32
2022-12-25T07:51:05.047Z,3.03
2022-12-25T07:53:32.318Z,3.25
2022-12-25T07:56:05.264Z,2.53
2022-12-25T07:58:32.749Z,2.55
2022-12-25T08:01:05.301Z,2.63
2022-12-25T08:03:33.337Z,5.45
2022-12-25T08:06:02.111Z,7.47
2022-12-25T08:08:29.127Z,5.50
2022-12-25T08:10:55.821Z,5.10
2022-12-25T08:13:22.264Z,4.60
2022-12-25T08:15:48.814Z,7.03
2022-12-25T08:18:15.275Z,4.63
2022-12-25T08:20:41.799Z,6.10
2022-12-25T08:23:08.197Z,4.95
2022-12-25T08:25:34.933Z,4.00
2022-12-25T08:28:01.663Z,4.03
2022-12-25T08:30:28.421Z,3.92
2022-12-25T08:32:55.143Z,5.30
2022-12-25T08:35:21.799Z,4.82
2022-12-25T08:37:48.381Z,4.55
2022-12-25T08:40:14.925Z,4.40
2022-12-25T08:42:41.399Z,3.95
2022-12-25T08:45:08.402Z,4.40
2022-12-25T08:47:34.848Z,4.30
2022-12-25T08:50:01.594Z,4.38
2022-12-25T08:52:28.890Z,4.68
2022-12-25T08:54:55.316Z,4.65
2022-12-25T08:57:21.837Z,4.45
2022-12-25T08:59:48.256Z,5.22
2022-12-25T09:02:17.080Z,3.83
2022-12-25T09:04:46.223Z,3.03
2022-12-25T09:07:12.806Z,3.15
2022-12-25T09:09:39.330Z,2.45
2022-12-25T09:12:05.868Z,2.65
2022-12-25T09:14:32.337Z,3.22
2022-12-25T09:16:58.903Z,3.80
2022-12-25T09:19:25.327Z,3.50
2022-12-25T09:21:51.868Z,4.00
2022-12-25T09:24:18.444Z,3.90
2022-12-25T09:26:44.859Z,4.30
2022-12-25T09:29:11.326Z,4.82
2022-12-25T09:31:37.824Z,4.25
2022-12-25T09:34:04.257Z,3.88
2022-12-25T09:36:30.713Z,3.55
2022-12-25T09:38:57.242Z,4.18
2022-12-25T09:41:29.908Z,5.50
2022-12-25T09:44:13.392Z,11.30
2022-12-25T09:46:47.332Z,5.80
2022-12-25T09:49:38.772Z,4.28
2022-12-25T09:52:11.729Z,4.35
2022-12-25T09:54:53.490Z,4.68
2022-12-25T09:57:20.097Z,4.18
2022-12-25T09:59:47.581Z,4.63
2022-12-25T10:02:32.435Z,5.07
2022-12-25T10:05:07.133Z,3.92
2022-12-25T10:10:34.150Z,5.43
2022-12-25T10:13:38.485Z,4.97
2022-12-25T10:16:23.734Z,5.45
2022-12-25T10:19:16.646Z,5.10
2022-12-25T10:21:43.438Z,6.25
2022-12-25T10:24:33.305Z,5.03
2022-12-25T10:27:04.720Z,5.82
2022-12-25T10:29:34.857Z,5.45
2022-12-25T10:32:01.506Z,4.80
2022-12-25T10:34:28.908Z,5.85
2022-12-25T10:36:55.598Z,6.03
2022-12-25T10:39:24.896Z,5.70
2022-12-25T10:42:33.850Z,5.55
2022-12-25T10:45:02.811Z,5.40
2022-12-25T10:47:35.014Z,5.20
2022-12-25T10:50:19.029Z,4.72
2022-12-25T10:53:09.265Z,5.03
2022-12-25T10:55:35.705Z,4.53
2022-12-25T10:58:02.286Z,4.90
2022-12-25T11:00:31.402Z,5.50
2022-12-25T11:02:58.895Z,5.18
2022-12-25T11:05:28.567Z,5.03
2022-12-25T11:07:56.167Z,4.97
2022-12-25T11:10:38.307Z,4.70
2022-12-25T11:13:19.185Z,6.50
2022-12-25T11:15:48.798Z,5.75
2022-12-25T11:18:21.429Z,5.50
2022-12-25T11:20:59.413Z,4.95
2022-12-25T11:23:28.721Z,4.78
2022-12-25T11:26:06.587Z,4.60
2022-12-25T11:28:36.884Z,5.15
2022-12-25T11:31:14.329Z,4.50
2022-12-25T11:34:16.485Z,4.25
2022-12-25T11:36:48.817Z,4.60
2022-12-25T11:39:31.591Z,3.92
2022-12-25T11:42:06.741Z,4.47
2022-12-25T11:44:54.322Z,4.00
2022-12-25T11:47:33.933Z,3.45
2022-12-25T11:50:31.014Z,3.50
2022-12-25T11:53:01.957Z,3.28
2022-12-25T11:55:41.306Z,3.10
2022-12-25T11:58:26.162Z,3.15
2022-12-25T12:00:56.341Z,3.30
2022-12-25T12:03:35.926Z,3.38
2022-12-25T12:06:07.010Z,3.30
2022-12-25T12:08:35.522Z,2.80
2022-12-25T12:11:18.654Z,4.20
2022-12-25T12:14:07.705Z,3.53
2022-12-25T12:16:34.947Z,3.40
2022-12-25T12:19:23.847Z,3.22
2022-12-25T12:21:50.613Z,4.10
2022-12-25T12:24:20.612Z,4.00
2022-12-25T12:26:59.251Z,3.78
2022-12-25T12:29:29.896Z,3.85
2022-12-25T12:32:03.752Z,4.00
2022-12-25T12:34:42.945Z,3.40
2022-12-25T12:37:25.199Z,3.80
2022-12-25T12:39:54.469Z,4.13
2022-12-25T12:42:26.362Z,3.72
2022-12-25T12:44:55.562Z,3.97
2022-12-25T12:47:28.044Z,3.85
2022-12-25T12:49:59.707Z,3.90
2022-12-25T12:52:33.184Z,4.32
2022-12-25T12:55:09.098Z,3.72
2022-12-25T12:57:39.832Z,4.25
2022-12-25T13:00:28.141Z,4.38
2022-12-25T13:03:33.327Z,3.28
2022-12-25T13:06:13.674Z,4.15
2022-12-25T13:08:40.073Z,3.13
2022-12-25T13:11:12.430Z,2.90
2022-12-25T13:13:44.300Z,3.13
2022-12-25T13:16:22.844Z,3.42
2022-12-25T13:18:52.561Z,3.60
2022-12-25T13:21:23.541Z,3.70
2022-12-25T13:23:56.244Z,3.63
2022-12-25T13:26:23.775Z,2.72
2022-12-25T13:28:50.262Z,3.30
2022-12-25T13:31:22.630Z,3.90
2022-12-25T13:33:52.426Z,3.83
2022-12-25T13:36:19.199Z,3.33
2022-12-25T13:38:49.235Z,3.17
2022-12-25T13:41:41.172Z,3.03
2022-12-25T13:44:22.938Z,3.45
2022-12-25T13:46:49.473Z,3.30
2022-12-25T13:49:23.755Z,3.33
2022-12-25T13:51:50.951Z,3.80
2022-12-25T13:54:18.327Z,2.95
2022-12-25T13:56:58.751Z,2.95
2022-12-25T13:59:25.760Z,3.20
2022-12-25T14:01:54.038Z,2.40
2022-12-25T14:04:24.016Z,3.28
2022-12-25T14:06:52.006Z,3.08
2022-12-25T14:09:19.932Z,3.30
2022-12-25T14:11:51.144Z,3.00
2022-12-25T14:14:23.070Z,2.97
2022-12-25T14:16:53.427Z,3.30
2022-12-25T14:19:33.487Z,3.13
2022-12-25T14:22:05.491Z,3.65
2022-12-25T14:24:34.081Z,3.03
2022-12-25T14:27:03.151Z,3.40
2022-12-25T14:29:36.223Z,3.60
2022-12-25T14:32:16.057Z,3.22
2022-12-25T14:34:46.141Z,3.03
2022-12-25T14:37:21.357Z,3.28
2022-12-25T14:39:57.519Z,3.13
2022-12-25T14:42:27.099Z,3.13
2022-12-25T14:45:04.639Z,2.75
2022-12-25T14:47:32.843Z,2.40
2022-12-25T14:49:59.931Z,2.67
2022-12-25T14:52:43.327Z,2.67
2022-12-25T14:55:20.150Z,2.42
2022-12-25T14:58:01.541Z,2.00
2022-12-25T15:00:32.782Z,2.33
2022-12-25T15:03:01.203Z,2.10
2022-12-25T15:05:29.656Z,2.20
2022-12-25T15:08:25.940Z,2.38
2022-12-25T15:11:01.122Z,2.70
2022-12-25T15:13:30.255Z,2.67
2022-12-25T15:15:59.411Z,2.50
2022-12-25T15:18:31.601Z,3.70
2022-12-25T15:20:58.519Z,3.45
2022-12-25T15:23:25.573Z,3.90
2022-12-25T15:25:52.485Z,5.00
2022-12-25T15:28:19.323Z,5.30
2022-12-25T15:30:46.186Z,4.93
2022-12-25T15:33:17.755Z,5.40
2022-12-25T15:35:44.981Z,5.70
2022-12-25T15:38:13.068Z,4.93
2022-12-25T15:40:40.492Z,5.75
2022-12-25T15:43:14.606Z,5.22
2022-12-25T15:45:48.929Z,5.20
2022-12-25T15:48:15.356Z,4.05
2022-12-25T15:50:41.790Z,5.35
2022-12-25T15:53:10.684Z,5.35
2022-12-25T15:55:37.233Z,5.40
2022-12-25T15:58:03.703Z,5.63
2022-12-25T16:00:30.348Z,5.10
2022-12-25T16:02:57.049Z,8.57
2022-12-25T16:05:24.850Z,6.00
2022-12-25T16:07:51.283Z,5.00
2022-12-25T16:10:19.595Z,3.72
2022-12-25T16:12:46.646Z,2.83
2022-12-25T16:15:14.894Z,2.88
2022-12-25T16:17:41.656Z,2.10
2022-12-25T16:20:09.229Z,2.90
2022-12-25T16:22:40.062Z,2.38
2022-12-25T16:25:13.304Z,2.22
2022-12-25T16:27:39.803Z,1.63
2022-12-25T16:30:06.978Z,1.90
2022-12-25T16:32:33.497Z,1.85
2022-12-25T16:34:59.895Z,1.70
2022-12-25T16:37:27.676Z,1.70
2022-12-25T16:39:54.120Z,1.60
2022-12-25T16:42:20.712Z,1.65
2022-12-25T16:44:47.166Z,1.42
2022-12-25T16:47:13.787Z,1.45
2022-12-25T16:49:40.345Z,1.40
2022-12-25T16:52:06.766Z,1.50
2022-12-25T16:54:33.306Z,1.58
2022-12-25T16:56:59.862Z,1.75
2022-12-25T16:59:28.637Z,1.38
2022-12-25T17:01:55.188Z,1.60
2022-12-25T17:04:22.141Z,1.30
2022-12-25T17:06:49.081Z,1.40
2022-12-25T17:09:15.550Z,1.60
2022-12-25T17:11:42.016Z,1.42
2022-12-25T17:14:09.938Z,2.22
2022-12-25T17:19:12.897Z,1.50
2022-12-25T17:21:39.477Z,1.30
2022-12-25T17:24:06.333Z,1.25
2022-12-25T17:26:33.708Z,1.60
2022-12-25T17:29:00.370Z,1.70
2022-12-25T17:31:27.230Z,1.83
2022-12-25T17:33:54.080Z,1.90
2022-12-25T17:36:22.055Z,2.10
2022-12-25T17:38:48.833Z,1.80
2022-12-25T17:41:17.078Z,1.80
2022-12-25T17:43:45.614Z,1.70
2022-12-25T17:46:20.810Z,1.45
2022-12-25T17:48:49.865Z,1.50
2022-12-25T17:51:19.349Z,1.73
2022-12-25T17:53:48.498Z,1.70
2022-12-25T17:56:16.213Z,1.58
2022-12-25T17:58:43.811Z,1.63
2022-12-25T18:01:13.333Z,1.70
2022-12-25T18:03:40.199Z,1.60
2022-12-25T18:06:10.153Z,1.77
2022-12-25T18:08:39.555Z,1.50
2022-12-25T18:11:09.103Z,1.73
2022-12-25T18:13:36.127Z,1.52
2022-12-25T18:16:05.368Z,1.70
2022-12-25T18:18:32.735Z,1.58
2022-12-25T18:20:59.536Z,1.55
2022-12-25T18:23:26.684Z,1.70
2022-12-25T18:25:53.137Z,2.00
2022-12-25T18:28:19.889Z,2.05
2022-12-25T18:30:46.781Z,1.45
2022-12-25T18:33:14.311Z,1.85
2022-12-25T18:35:42.621Z,1.60
2022-12-25T18:38:10.013Z,1.90
2022-12-25T18:40:44.002Z,2.03
2022-12-25T18:43:10.953Z,2.10
2022-12-25T18:45:37.551Z,2.00
2022-12-25T18:48:06.177Z,2.00
2022-12-25T18:50:38.467Z,2.38
2022-12-25T18:53:05.569Z,2.00
2022-12-25T18:55:32.245Z,2.20
2022-12-25T18:57:59.215Z,1.92
2022-12-25T19:00:26.180Z,1.85
2022-12-25T19:02:57.948Z,2.00
2022-12-25T19:05:24.699Z,1.80
2022-12-25T19:07:51.185Z,1.98
2022-12-25T19:10:17.899Z,1.70
2022-12-25T19:12:44.457Z,1.70
2022-12-25T19:15:11.092Z,2.55
2022-12-25T19:17:37.599Z,2.13
2022-12-25T19:20:06.106Z,2.20
2022-12-25T19:22:32.695Z,1.90
2022-12-25T19:24:59.223Z,2.00
2022-12-25T19:27:25.764Z,1.52
2022-12-25T19:29:52.203Z,1.80
2022-12-25T19:32:18.608Z,1.90
2022-12-25T19:34:45.103Z,2.00
2022-12-25T19:37:11.536Z,1.80
2022-12-25T19:39:38.058Z,1.70
2022-12-25T19:42:04.539Z,1.73
2022-12-25T19:44:30.994Z,1.80
2022-12-25T19:46:57.473Z,1.73
2022-12-25T19:49:23.916Z,1.88
2022-12-25T19:51:50.386Z,2.10
2022-12-25T19:54:18.816Z,1.95
2022-12-25T19:56:47.125Z,1.98
2022-12-25T19:59:14.528Z,2.20
2022-12-25T20:01:41.321Z,1.92
2022-12-25T20:04:09.876Z,2.40
2022-12-25T20:06:38.805Z,2.03
2022-12-25T20:09:11.783Z,2.40
2022-12-25T20:11:38.938Z,2.40
2022-12-25T20:14:07.097Z,2.90
2022-12-25T20:16:36.688Z,2.42
2022-12-25T20:19:03.753Z,2.80
2022-12-25T20:21:30.712Z,2.38
2022-12-25T20:23:57.748Z,2.20
2022-12-25T20:26:29.965Z,3.45
2022-12-25T20:28:57.845Z,3.50
2022-12-25T20:31:30.026Z,2.85
2022-12-25T20:33:59.390Z,3.00
2022-12-25T20:36:31.050Z,3.00
2022-12-25T20:39:01.011Z,3.05
2022-12-25T20:41:29.062Z,2.80
2022-12-25T20:43:56.154Z,3.13
2022-12-25T20:46:23.205Z,3.10
2022-12-25T20:48:49.753Z,3.13
2022-12-25T20:51:22.172Z,3.20
2022-12-25T20:53:49.473Z,2.80
2022-12-25T20:56:18.021Z,3.08
2022-12-25T20:58:44.931Z,3.90
2022-12-25T21:01:14.991Z,3.00
2022-12-25T21:03:42.282Z,3.20
2022-12-25T21:06:10.091Z,2.83
2022-12-25T21:08:37.661Z,2.78
2022-12-25T21:11:04.924Z,2.45
2022-12-25T21:13:34.016Z,1.83
2022-12-25T21:16:00.701Z,2.30
2022-12-25T21:18:28.370Z,2.50
2022-12-25T21:20:57.288Z,2.85
2022-12-25T21:23:26.616Z,3.15
2022-12-25T21:25:54.650Z,2.80
2022-12-25T21:30:47.845Z,3.10
2022-12-25T21:33:33.569Z,3.20
2022-12-25T21:36:11.002Z,3.47
2022-12-25T21:38:38.489Z,2.72
2022-12-25T21:41:07.961Z,3.05
2022-12-25T21:43:35.558Z,3.42
2022-12-25T21:46:04.003Z,3.38
2022-12-25T21:48:30.450Z,2.60
2022-12-25T21:51:23.991Z,2.75
2022-12-25T21:53:50.667Z,2.95
2022-12-25T21:56:17.543Z,2.40
2022-12-25T21:58:44.185Z,2.67
2022-12-25T22:01:11.669Z,2.17
2022-12-25T22:03:38.247Z,2.30
2022-12-25T22:06:23.430Z,1.88
2022-12-25T22:08:49.834Z,2.17
2022-12-25T22:11:35.162Z,2.10
2022-12-25T22:14:20.102Z,2.20
2022-12-25T22:17:26.179Z,2.30
2022-12-25T22:19:52.694Z,2.05
2022-12-25T22:22:22.125Z,3.70
2022-12-25T22:24:49.547Z,4.20
2022-12-25T22:27:17.105Z,3.60
2022-12-25T22:29:43.829Z,3.25
2022-12-25T22:32:11.534Z,3.75
2022-12-25T22:34:38.295Z,3.63
2022-12-25T22:37:06.016Z,3.42
2022-12-25T22:39:33.639Z,2.97
2022-12-25T22:42:01.515Z,3.42
2022-12-25T22:44:30.684Z,3.10
2022-12-25T22:46:58.167Z,3.63
2022-12-25T22:49:26.710Z,3.10
2022-12-25T22:51:53.616Z,3.47
2022-12-25T22:54:21.859Z,3.08
2022-12-25T22:56:50.580Z,2.95
2022-12-25T22:59:19.897Z,2.70
2022-12-25T23:01:46.955Z,2.67
2022-12-25T23:04:13.481Z,3.20
2022-12-25T23:06:40.314Z,2.47
2022-12-25T23:09:08.438Z,2.75
2022-12-25T23:11:35.984Z,2.65
2022-12-25T23:14:21.095Z,2.88
2022-12-25T23:16:47.536Z,2.53
2022-12-25T23:19:33.217Z,3.22
2022-12-25T23:22:29.365Z,2.53
2022-12-25T23:25:14.769Z,2.33
2022-12-25T23:27:41.546Z,2.50
2022-12-25T23:30:13.753Z,2.88
2022-12-25T23:32:40.596Z,3.10
2022-12-25T23:35:07.580Z,3.75
2022-12-25T23:37:34.030Z,2.58
2022-12-25T23:40:00.493Z,3.22
2022-12-25T23:42:26.918Z,3.03
2022-12-25T23:44:53.444Z,3.47
2022-12-25T23:47:19.897Z,3.22
2022-12-25T23:49:46.482Z,2.90
2022-12-25T23:52:13.083Z,3.22
2022-12-25T23:54:39.856Z,3.58
2022-12-25T23:57:06.337Z,4.32
2022-12-25T23:59:32.834Z,4.75
